This is the latest recevied weather packets stored in our database for station/object DK6GC-10. If no packets are shown the sender has not sent any weather packets the latest 10 day(s).
| Time | Temp. | Humidity | Pressure | Rain* | Wind** | Luminosity | Snow |
|---|---|---|---|---|---|---|---|
| 1777878016 | 15° C | 67% | 1015.6 hPa | - | - | - | - |
| 1777877115 | 15.56° C | 64% | 1015.4 hPa | - | - | - | - |
| 1777876215 | 15.56° C | 67% | 1015.4 hPa | - | - | - | - |
| 1777875314 | 14.44° C | 66% | 1015.2 hPa | - | - | - | - |
| 1777870826 | 11.11° C | 77% | 1015.5 hPa | - | - | - | - |
| 1777869926 | 10.56° C | 78% | 1015.3 hPa | - | - | - | - |
| 1777869025 | 10° C | 79% | 1015.3 hPa | - | - | - | - |
| 1777868125 | 10° C | 77% | 1015.3 hPa | - | - | - | - |
| 1777867225 | 10° C | 78% | 1015.2 hPa | - | - | - | - |
| 1777866324 | 10° C | 78% | 1015.3 hPa | - | - | - | - |
| 1777865424 | 10.56° C | 77% | 1015.4 hPa | - | - | - | - |
| 1777864524 | 10° C | 77% | 1015.4 hPa | - | - | - | - |
| 1777863624 | 10° C | 77% | 1015.4 hPa | - | - | - | - |
| 1777862724 | 10.56° C | 76% | 1015.5 hPa | - | - | - | - |
| 1777861824 | 10.56° C | 75% | 1015.4 hPa | - | - | - | - |
| 1777860923 | 10.56° C | 75% | 1015.5 hPa | - | - | - | - |
| 1777860023 | 10.56° C | 75% | 1015.6 hPa | - | - | - | - |
| 1777859123 | 10.56° C | 76% | 1015.7 hPa | - | - | - | - |
| 1777858223 | 10.56° C | 77% | 1015.7 hPa | - | - | - | - |
| 1777857323 | 11.11° C | 75% | 1015.6 hPa | - | - | - | - |
| 1777856422 | 11.11° C | 75% | 1015.6 hPa | - | - | - | - |
| 1777855522 | 11.67° C | 73% | 1015.6 hPa | - | - | - | - |
| 1777854622 | 11.67° C | 73% | 1015.5 hPa | - | - | - | - |
| 1777853722 | 11.67° C | 72% | 1015.5 hPa | - | - | - | - |
| 1777852826 | 12.22° C | 71% | 1015.5 hPa | - | - | - | - |
* Rain since midnight (hover to see other rain measurements)
** Current wind speed in m/s (hover to see current wind gust speed)